Time;durP1;ratioP1;P1;durP2;ratioP2;P2;SDS_P1;SDS_P2;PMS_P1;PMS_P2;Temp;Humidity;BMP_temperature;BMP_pressure;BME280_temperature;BME280_humidity;BME280_pressure;Samples;Min_cycle;Max_cycle;Signal;HPM_P1;HPM_P2
2022/10/22 00:02:01;;;;;;;367.87;205.37;;;;;;;;;;5001937;28;20220;-71
2022/10/22 00:04:30;;;;;;;340.87;200.10;;;;;;;;;;5001882;28;20281;-71
2022/10/22 00:06:56;;;;;;;341.13;193.10;;;;;;;;;;4989821;28;20223;-72
2022/10/22 00:09:22;;;;;;;358.90;196.50;;;;;;;;;;4998867;28;20227;-72
2022/10/22 00:11:48;;;;;;;318.10;181.87;;;;;;;;;;4997004;28;20648;-71
2022/10/22 00:14:15;;;;;;;457.80;255.00;;;;;;;;;;5002771;28;20854;-73
2022/10/22 00:16:41;;;;;;;220.50;135.83;;;;;;;;;;4999216;28;20224;-72
2022/10/22 00:19:08;;;;;;;383.53;219.20;;;;;;;;;;4986278;28;21924;-71
2022/10/22 00:21:34;;;;;;;303.87;178.40;;;;;;;;;;4983156;28;20189;-72
2022/10/22 00:24:00;;;;;;;228.83;144.23;;;;;;;;;;4985770;28;20181;-71
2022/10/22 00:26:29;;;;;;;344.03;196.00;;;;;;;;;;4979533;28;20263;-73
2022/10/22 00:28:55;;;;;;;349.30;202.33;;;;;;;;;;4992001;28;20217;-72
2022/10/22 00:31:21;;;;;;;367.83;205.40;;;;;;;;;;4995630;28;20208;-70
2022/10/22 00:33:47;;;;;;;292.83;174.17;;;;;;;;;;4984504;28;20227;-70
2022/10/22 00:36:13;;;;;;;369.37;206.20;;;;;;;;;;5010454;28;20196;-70
2022/10/22 00:38:42;;;;;;;350.67;190.17;;;;;;;;;;5003656;28;20208;-74
2022/10/22 00:41:08;;;;;;;344.87;199.30;;;;;;;;;;4987237;28;20446;-71
2022/10/22 00:43:52;;;;;;;284.73;170.03;;;;;;;;;;4978247;28;20213;-70
2022/10/22 00:46:18;;;;;;;198.83;129.60;;;;;;;;;;4972033;28;20322;-69
2022/10/22 00:48:44;;;;;;;444.27;240.23;;;;;;;;;;4975141;28;20316;-70
2022/10/22 00:51:10;;;;;;;306.97;182.20;;;;;;;;;;4977854;28;20185;-71
2022/10/22 00:53:43;;;;;;;380.77;216.30;;;;;;;;;;4991842;28;20215;-71
2022/10/22 00:56:09;;;;;;;355.00;199.40;;;;;;;;;;5004981;28;20223;-72
2022/10/22 00:58:36;;;;;;;339.33;195.77;;;;;;;;;;4999777;28;21014;-71
2022/10/22 01:01:04;;;;;;;281.50;168.17;;;;;;;;;;5005393;28;20243;-70
2022/10/22 01:03:33;;;;;;;424.03;243.97;;;;;;;;;;4998598;28;20947;-71
2022/10/22 01:06:06;;;;;;;336.07;188.43;;;;;;;;;;5016111;28;20216;-69
2022/10/22 01:08:53;;;;;;;360.37;198.70;;;;;;;;;;4995067;28;20684;-70
2022/10/22 01:11:33;;;;;;;182.73;123.33;;;;;;;;;;5004814;28;20561;-70
2022/10/22 01:14:08;;;;;;;427.40;232.83;;;;;;;;;;4998066;28;20647;-70
2022/10/22 01:16:37;;;;;;;310.07;178.63;;;;;;;;;;4996138;28;20300;-69
2022/10/22 01:19:12;;;;;;;400.33;220.20;;;;;;;;;;4993295;28;20367;-70
2022/10/22 01:21:43;;;;;;;308.57;184.30;;;;;;;;;;4991268;28;20187;-70
2022/10/22 01:24:28;;;;;;;329.33;188.37;;;;;;;;;;4984431;28;20267;-70
2022/10/22 01:27:06;;;;;;;287.73;175.77;;;;;;;;;;4975753;28;20702;-70
2022/10/22 01:29:35;;;;;;;400.53;231.40;;;;;;;;;;4990359;28;20229;-71
2022/10/22 01:32:04;;;;;;;281.50;170.77;;;;;;;;;;5003057;28;20804;-70
2022/10/22 01:34:32;;;;;;;394.57;225.87;;;;;;;;;;4989622;28;20216;-70
2022/10/22 01:36:59;;;;;;;276.97;165.17;;;;;;;;;;4982867;28;21280;-70
2022/10/22 01:39:29;;;;;;;285.30;167.80;;;;;;;;;;4971463;28;20974;-69
2022/10/22 01:41:58;;;;;;;336.60;196.73;;;;;;;;;;4979554;28;20677;-70
2022/10/22 01:44:34;;;;;;;342.70;196.67;;;;;;;;;;4997948;28;20430;-70
2022/10/22 01:47:12;;;;;;;310.63;178.87;;;;;;;;;;4992058;28;21013;-70
2022/10/22 01:49:56;;;;;;;379.90;224.03;;;;;;;;;;4992027;28;20821;-70
2022/10/22 01:52:38;;;;;;;268.60;164.07;;;;;;;;;;4985217;28;20307;-69
2022/10/22 01:55:16;;;;;;;428.77;244.93;;;;;;;;;;4991878;28;20285;-70
2022/10/22 01:57:42;;;;;;;279.47;164.07;;;;;;;;;;4994914;28;20239;-69
2022/10/22 02:00:10;;;;;;;381.97;219.57;;;;;;;;;;4999137;28;20279;-70
2022/10/22 02:03:01;;;;;;;313.43;188.53;;;;;;;;;;4993882;28;20304;-73
2022/10/22 02:05:59;;;;;;;388.03;217.97;;;;;;;;;;4971553;28;20619;-72
2022/10/22 02:08:28;;;;;;;406.57;234.23;;;;;;;;;;4947431;28;20228;-73
2022/10/22 02:10:55;;;;;;;247.03;149.50;;;;;;;;;;4988220;28;20221;-72
2022/10/22 02:13:25;;;;;;;330.50;200.00;;;;;;;;;;4978597;28;20220;-73
2022/10/22 02:15:51;;;;;;;286.30;174.83;;;;;;;;;;4993259;28;20229;-72
2022/10/22 02:18:29;;;;;;;406.70;235.03;;;;;;;;;;4971588;28;20192;-69
2022/10/22 02:20:55;;;;;;;303.30;183.73;;;;;;;;;;4986894;28;20268;-69
2022/10/22 02:23:21;;;;;;;221.70;143.97;;;;;;;;;;4986488;28;20585;-69
2022/10/22 02:25:49;;;;;;;347.00;195.17;;;;;;;;;;4994580;28;20227;-70
2022/10/22 02:28:21;;;;;;;333.63;194.50;;;;;;;;;;4982342;28;20217;-72
2022/10/22 02:30:54;;;;;;;389.27;213.30;;;;;;;;;;4995069;28;20220;-69
2022/10/22 02:33:22;;;;;;;284.03;165.93;;;;;;;;;;4987200;28;20928;-69
2022/10/22 02:35:49;;;;;;;271.17;165.47;;;;;;;;;;4985221;28;20228;-69
2022/10/22 02:38:19;;;;;;;329.07;194.40;;;;;;;;;;4986204;28;20215;-70
2022/10/22 02:41:00;;;;;;;363.67;220.13;;;;;;;;;;4990071;28;20990;-70
2022/10/22 02:43:31;;;;;;;382.50;215.90;;;;;;;;;;4980451;28;20220;-71
2022/10/22 02:45:59;;;;;;;347.90;197.83;;;;;;;;;;4992574;28;21252;-69
2022/10/22 02:48:25;;;;;;;280.40;170.23;;;;;;;;;;4991822;28;20322;-71
2022/10/22 02:50:54;;;;;;;355.83;216.40;;;;;;;;;;4982440;28;20271;-70
2022/10/22 02:53:20;;;;;;;347.57;196.23;;;;;;;;;;4999945;28;22025;-70
2022/10/22 02:55:46;;;;;;;402.07;226.50;;;;;;;;;;4983234;28;20262;-70
2022/10/22 02:58:15;;;;;;;250.90;154.17;;;;;;;;;;4982546;28;20813;-70
2022/10/22 03:00:41;;;;;;;282.17;164.90;;;;;;;;;;4996023;28;20228;-69
2022/10/22 03:03:07;;;;;;;416.03;242.00;;;;;;;;;;4999037;28;20192;-69
2022/10/22 03:05:32;;;;;;;369.47;207.57;;;;;;;;;;4998718;28;20223;-68
2022/10/22 03:07:58;;;;;;;369.30;210.30;;;;;;;;;;4981860;28;20232;-70
2022/10/22 03:10:24;;;;;;;325.00;193.90;;;;;;;;;;4956357;28;21210;-71
2022/10/22 03:12:50;;;;;;;327.80;192.30;;;;;;;;;;4978489;28;20228;-70
2022/10/22 03:15:16;;;;;;;372.53;222.53;;;;;;;;;;4965191;28;22765;-69
2022/10/22 03:17:42;;;;;;;423.83;238.37;;;;;;;;;;4969420;28;20224;-68
2022/10/22 03:20:08;;;;;;;341.73;196.10;;;;;;;;;;4968368;28;20217;-69
2022/10/22 03:22:35;;;;;;;319.83;185.07;;;;;;;;;;4965626;28;20573;-70
2022/10/22 03:25:10;;;;;;;373.20;217.20;;;;;;;;;;4980428;28;20228;-69
2022/10/22 03:27:37;;;;;;;302.90;186.27;;;;;;;;;;4971653;28;20643;-70
2022/10/22 03:30:06;;;;;;;342.53;207.53;;;;;;;;;;4975381;28;20570;-69
2022/10/22 03:32:32;;;;;;;264.30;156.17;;;;;;;;;;5004342;28;20723;-68
2022/10/22 03:34:58;;;;;;;387.53;216.37;;;;;;;;;;4996396;28;20220;-70
2022/10/22 03:37:29;;;;;;;337.30;200.93;;;;;;;;;;4974428;28;20225;-70
2022/10/22 03:39:55;;;;;;;250.10;148.27;;;;;;;;;;4972380;28;20224;-69
2022/10/22 03:42:21;;;;;;;394.60;219.67;;;;;;;;;;4977047;28;20339;-70
2022/10/22 03:44:50;;;;;;;431.97;244.17;;;;;;;;;;4969307;28;20220;-70
2022/10/22 03:47:16;;;;;;;288.10;172.50;;;;;;;;;;4996358;28;20666;-69
2022/10/22 03:49:45;;;;;;;425.57;240.37;;;;;;;;;;4987139;28;20217;-70
2022/10/22 03:52:12;;;;;;;289.60;176.13;;;;;;;;;;4989775;28;20213;-69
2022/10/22 03:54:38;;;;;;;282.60;172.03;;;;;;;;;;4995364;28;20193;-70
2022/10/22 03:57:05;;;;;;;306.47;185.00;;;;;;;;;;4998455;28;20503;-69
2022/10/22 03:59:44;;;;;;;397.27;231.97;;;;;;;;;;4955595;28;21049;-71
2022/10/22 04:02:11;;;;;;;353.07;205.27;;;;;;;;;;4963975;28;20208;-70
2022/10/22 04:04:37;;;;;;;319.97;187.87;;;;;;;;;;4970842;28;20412;-69
2022/10/22 04:07:04;;;;;;;304.75;176.25;;;;;;;;;;4975627;28;20927;-70
2022/10/22 04:09:31;;;;;;;236.30;150.40;;;;;;;;;;4979490;28;20304;-70
2022/10/22 04:12:00;;;;;;;378.07;222.03;;;;;;;;;;4968738;28;20181;-70
2022/10/22 04:14:26;;;;;;;375.13;215.10;;;;;;;;;;4971966;28;20216;-71
2022/10/22 04:16:58;;;;;;;448.30;263.90;;;;;;;;;;4980006;28;21401;-70
2022/10/22 04:19:24;;;;;;;270.63;166.93;;;;;;;;;;4966934;28;20330;-69
2022/10/22 04:21:53;;;;;;;439.00;246.17;;;;;;;;;;4970778;28;20869;-70
2022/10/22 04:24:19;;;;;;;380.80;225.13;;;;;;;;;;4965974;28;20664;-71
2022/10/22 04:26:45;;;;;;;516.50;302.10;;;;;;;;;;4959305;28;20314;-73
2022/10/22 04:29:11;;;;;;;278.17;166.40;;;;;;;;;;5005035;28;20231;-70
2022/10/22 04:31:37;;;;;;;308.63;186.70;;;;;;;;;;4974642;28;20208;-70
2022/10/22 04:34:06;;;;;;;356.50;213.67;;;;;;;;;;4987320;28;20224;-70
2022/10/22 04:36:33;;;;;;;293.27;181.47;;;;;;;;;;5001621;28;20216;-69
2022/10/22 04:39:08;;;;;;;434.60;240.40;;;;;;;;;;5007774;28;20590;-70
2022/10/22 04:41:36;;;;;;;347.00;206.83;;;;;;;;;;4983541;28;20200;-69
2022/10/22 04:44:02;;;;;;;428.47;243.70;;;;;;;;;;4971715;28;20295;-70
2022/10/22 04:46:29;;;;;;;262.40;164.80;;;;;;;;;;4970759;28;20274;-68
2022/10/22 04:48:58;;;;;;;415.73;237.93;;;;;;;;;;4967037;28;20227;-69
2022/10/22 04:51:25;;;;;;;370.13;198.63;;;;;;;;;;4964768;28;20706;-70
2022/10/22 04:53:51;;;;;;;335.73;182.00;;;;;;;;;;4984211;28;20189;-70
2022/10/22 04:56:24;;;;;;;321.97;183.80;;;;;;;;;;4956947;28;20240;-71
2022/10/22 04:58:51;;;;;;;327.90;183.00;;;;;;;;;;4976387;28;20221;-70
2022/10/22 05:01:18;;;;;;;280.33;165.93;;;;;;;;;;4985070;28;20309;-70
2022/10/22 05:03:44;;;;;;;234.17;141.87;;;;;;;;;;4969267;28;20716;-69
2022/10/22 05:06:11;;;;;;;262.37;156.93;;;;;;;;;;4981566;28;20288;-69
2022/10/22 05:08:37;;;;;;;256.23;152.13;;;;;;;;;;4994961;28;20223;-70
2022/10/22 05:11:10;;;;;;;299.13;173.73;;;;;;;;;;4968267;28;20233;-70
2022/10/22 05:13:36;;;;;;;391.63;211.57;;;;;;;;;;4971097;28;20216;-69
2022/10/22 05:16:02;;;;;;;364.63;203.07;;;;;;;;;;4988163;28;20212;-69
2022/10/22 05:18:28;;;;;;;411.00;223.67;;;;;;;;;;4992243;28;20565;-69
2022/10/22 05:20:54;;;;;;;362.50;217.70;;;;;;;;;;4985182;28;20242;-71
2022/10/22 05:23:20;;;;;;;426.03;229.00;;;;;;;;;;4988454;28;20244;-71
2022/10/22 05:25:46;;;;;;;327.90;177.70;;;;;;;;;;4979351;28;20213;-70
2022/10/22 05:28:12;;;;;;;298.77;169.33;;;;;;;;;;4997557;28;20205;-69
2022/10/22 05:30:41;;;;;;;487.20;258.67;;;;;;;;;;4992839;28;20216;-72
2022/10/22 05:33:07;;;;;;;233.90;142.87;;;;;;;;;;4976869;28;20280;-71
2022/10/22 05:35:33;;;;;;;444.80;241.63;;;;;;;;;;4978927;28;20217;-72
2022/10/22 05:37:59;;;;;;;371.53;211.57;;;;;;;;;;4993296;28;20211;-73
2022/10/22 05:40:25;;;;;;;286.00;164.07;;;;;;;;;;4980288;28;20299;-74
2022/10/22 05:42:53;;;;;;;302.40;173.37;;;;;;;;;;4997600;28;20304;-72
2022/10/22 05:45:19;;;;;;;447.27;239.63;;;;;;;;;;4975534;28;20189;-71
2022/10/22 05:47:48;;;;;;;313.17;171.00;;;;;;;;;;4961454;28;20564;-71
2022/10/22 05:50:20;;;;;;;355.77;191.80;;;;;;;;;;4982089;28;20228;-73
2022/10/22 05:52:46;;;;;;;413.07;219.60;;;;;;;;;;4975570;28;20216;-73
2022/10/22 05:55:17;;;;;;;364.37;201.00;;;;;;;;;;4984738;28;20203;-75
2022/10/22 05:57:43;;;;;;;258.37;146.77;;;;;;;;;;5001363;28;20717;-74
2022/10/22 06:00:09;;;;;;;292.67;160.93;;;;;;;;;;4987240;28;20224;-74
2022/10/22 06:02:35;;;;;;;226.20;134.93;;;;;;;;;;4993681;28;20227;-73
2022/10/22 06:05:07;;;;;;;365.57;194.53;;;;;;;;;;4992359;28;20216;-74
2022/10/22 06:07:33;;;;;;;323.13;183.30;;;;;;;;;;4997895;28;20306;-74
2022/10/22 06:10:02;;;;;;;407.63;219.20;;;;;;;;;;4992371;28;20307;-73
2022/10/22 06:12:28;;;;;;;394.63;211.93;;;;;;;;;;4994769;28;20246;-74
2022/10/22 06:14:54;;;;;;;337.30;185.13;;;;;;;;;;5000852;28;20555;-74
2022/10/22 06:17:20;;;;;;;450.40;245.50;;;;;;;;;;4992622;28;20227;-73
2022/10/22 06:19:49;;;;;;;421.27;218.00;;;;;;;;;;4990631;28;20266;-75
2022/10/22 06:22:15;;;;;;;355.70;193.83;;;;;;;;;;4988890;28;20704;-74
2022/10/22 06:24:41;;;;;;;365.47;193.17;;;;;;;;;;4990851;28;20307;-73
2022/10/22 06:27:13;;;;;;;512.17;263.03;;;;;;;;;;4973835;28;20280;-72
2022/10/22 06:29:39;;;;;;;321.23;174.67;;;;;;;;;;4980927;28;20250;-73
2022/10/22 06:32:08;;;;;;;393.07;212.00;;;;;;;;;;4981542;28;20588;-74
2022/10/22 06:34:34;;;;;;;395.63;217.33;;;;;;;;;;4987373;28;20223;-75
2022/10/22 06:37:00;;;;;;;363.53;200.53;;;;;;;;;;4986486;28;20219;-74
2022/10/22 06:39:26;;;;;;;279.10;153.63;;;;;;;;;;4990079;28;23037;-73
2022/10/22 06:41:55;;;;;;;397.13;209.50;;;;;;;;;;4984714;28;20196;-74
2022/10/22 06:44:21;;;;;;;369.03;197.63;;;;;;;;;;4975082;28;20354;-73
2022/10/22 06:46:51;;;;;;;318.90;186.13;;;;;;;;;;4989658;28;20213;-72
2022/10/22 06:49:17;;;;;;;458.50;254.67;;;;;;;;;;4976309;28;20255;-74
2022/10/22 06:51:43;;;;;;;405.83;224.93;;;;;;;;;;4982806;28;20220;-72
2022/10/22 06:54:18;;;;;;;299.20;167.50;;;;;;;;;;4991950;28;20201;-74
2022/10/22 06:56:44;;;;;;;239.47;138.50;;;;;;;;;;5005054;28;20271;-73
2022/10/22 06:59:10;;;;;;;312.27;175.77;;;;;;;;;;4983606;28;20212;-73
2022/10/22 07:01:41;;;;;;;370.00;196.93;;;;;;;;;;4988976;28;20216;-73
2022/10/22 07:04:07;;;;;;;379.60;203.10;;;;;;;;;;4989316;28;20231;-73
2022/10/22 07:06:33;;;;;;;383.83;211.00;;;;;;;;;;4992954;28;20394;-73
2022/10/22 07:08:59;;;;;;;341.77;189.97;;;;;;;;;;5011591;28;20183;-74
2022/10/22 07:11:37;;;;;;;548.80;284.33;;;;;;;;;;4968704;28;20208;-72
2022/10/22 07:14:06;;;;;;;401.57;218.90;;;;;;;;;;4993076;28;20208;-73
2022/10/22 07:16:32;;;;;;;535.83;293.73;;;;;;;;;;4985721;28;22048;-73
2022/10/22 07:18:59;;;;;;;326.13;179.10;;;;;;;;;;4985885;28;20212;-73
2022/10/22 07:21:25;;;;;;;200.60;124.00;;;;;;;;;;4993438;28;20245;-72
2022/10/22 07:23:51;;;;;;;281.27;158.47;;;;;;;;;;4996774;28;20531;-76
2022/10/22 07:26:19;;;;;;;423.07;228.17;;;;;;;;;;4999811;28;20719;-74
2022/10/22 07:28:45;;;;;;;383.63;212.73;;;;;;;;;;4995806;28;20550;-73
2022/10/22 07:31:12;;;;;;;293.83;169.67;;;;;;;;;;4988857;28;20692;-64
2022/10/22 07:33:38;;;;;;;320.93;172.37;;;;;;;;;;5001957;28;20571;-64
2022/10/22 07:36:05;;;;;;;213.10;129.33;;;;;;;;;;5006054;28;20669;-66
2022/10/22 07:38:34;;;;;;;458.77;244.63;;;;;;;;;;4965044;28;22057;-64
2022/10/22 07:41:00;;;;;;;453.20;256.37;;;;;;;;;;4960694;28;20295;-65
2022/10/22 07:43:26;;;;;;;307.37;175.43;;;;;;;;;;4963739;28;20746;-67
2022/10/22 07:45:54;;;;;;;317.37;182.23;;;;;;;;;;4976734;28;20223;-65
2022/10/22 07:48:23;;;;;;;349.37;192.53;;;;;;;;;;5025730;28;20216;-64
2022/10/22 07:50:52;;;;;;;299.10;174.47;;;;;;;;;;4978633;28;20708;-65
2022/10/22 07:53:18;;;;;;;309.20;176.93;;;;;;;;;;4995819;28;20924;-66
2022/10/22 07:55:49;;;;;;;300.97;169.30;;;;;;;;;;4994604;28;20242;-63
2022/10/22 07:58:19;;;;;;;292.83;168.67;;;;;;;;;;4990359;28;20209;-70
2022/10/22 08:00:46;;;;;;;323.17;184.50;;;;;;;;;;5002317;28;20298;-70
2022/10/22 08:03:12;;;;;;;348.43;193.67;;;;;;;;;;4991454;28;20689;-68
2022/10/22 08:05:38;;;;;;;412.53;220.33;;;;;;;;;;4996852;28;20247;-69
2022/10/22 08:08:10;;;;;;;299.37;169.27;;;;;;;;;;5001660;28;20291;-68
2022/10/22 08:10:36;;;;;;;412.87;225.00;;;;;;;;;;4997605;28;21135;-70
2022/10/22 08:13:05;;;;;;;382.33;207.60;;;;;;;;;;5016710;28;20232;-69
2022/10/22 08:15:37;;;;;;;241.77;149.60;;;;;;;;;;5027205;28;20181;-69
2022/10/22 08:18:03;;;;;;;219.57;135.97;;;;;;;;;;5022123;28;20192;-70
2022/10/22 08:20:29;;;;;;;289.83;168.67;;;;;;;;;;5002522;28;20300;-69
2022/10/22 08:23:01;;;;;;;394.67;215.50;;;;;;;;;;5007770;28;20307;-73
2022/10/22 08:25:27;;;;;;;351.60;198.27;;;;;;;;;;5028587;28;20212;-71
2022/10/22 08:27:53;;;;;;;287.50;175.80;;;;;;;;;;5022472;28;20289;-72
2022/10/22 08:30:19;;;;;;;201.97;132.00;;;;;;;;;;5031973;28;20204;-73
2022/10/22 08:32:45;;;;;;;212.70;132.20;;;;;;;;;;5009477;28;20240;-71
2022/10/22 08:35:13;;;;;;;290.63;164.33;;;;;;;;;;5009867;28;20685;-71
2022/10/22 08:37:42;;;;;;;401.63;225.27;;;;;;;;;;5008891;28;20569;-72
2022/10/22 08:40:12;;;;;;;366.10;204.80;;;;;;;;;;5019133;28;20216;-69
2022/10/22 08:42:56;;;;;;;327.10;186.13;;;;;;;;;;5027956;28;20220;-71
2022/10/22 08:45:48;;;;;;;271.87;160.77;;;;;;;;;;5029104;28;20168;-72
2022/10/22 08:48:32;;;;;;;378.07;209.17;;;;;;;;;;4991819;28;21064;-71
2022/10/22 08:50:58;;;;;;;342.87;202.53;;;;;;;;;;4959902;28;20951;-71
2022/10/22 08:53:31;;;;;;;312.13;187.40;;;;;;;;;;4954160;28;21814;-70
2022/10/22 08:56:03;;;;;;;395.07;230.70;;;;;;;;;;4965250;28;20609;-72
2022/10/22 08:58:49;;;;;;;280.67;163.83;;;;;;;;;;4967804;28;20208;-75
2022/10/22 09:01:22;;;;;;;398.27;226.17;;;;;;;;;;4955838;28;20251;-71
2022/10/22 09:03:51;;;;;;;361.93;217.03;;;;;;;;;;4977736;28;20216;-75
2022/10/22 09:06:29;;;;;;;433.33;249.10;;;;;;;;;;4967652;28;20222;-74
2022/10/22 09:08:56;;;;;;;466.70;251.67;;;;;;;;;;4964102;28;20224;-76
2022/10/22 09:11:23;;;;;;;300.43;174.03;;;;;;;;;;4974295;28;20293;-75
2022/10/22 09:13:50;;;;;;;381.57;204.73;;;;;;;;;;4981134;28;20237;-76
2022/10/22 09:16:18;;;;;;;424.70;230.90;;;;;;;;;;5003368;28;20285;-74
2022/10/22 09:19:02;;;;;;;366.00;206.80;;;;;;;;;;5005491;28;20220;-75
2022/10/22 09:21:40;;;;;;;321.17;186.33;;;;;;;;;;5014111;28;20195;-75
2022/10/22 09:24:16;;;;;;;288.73;173.10;;;;;;;;;;5001758;28;20192;-75
2022/10/22 09:26:42;;;;;;;315.37;187.10;;;;;;;;;;5004005;28;20274;-76
2022/10/22 09:29:13;;;;;;;186.63;123.47;;;;;;;;;;5008049;28;20219;-74
2022/10/22 09:31:44;;;;;;;315.10;186.73;;;;;;;;;;5003612;28;20515;-75
2022/10/22 09:34:13;;;;;;;397.00;218.27;;;;;;;;;;4992123;28;20209;-76
2022/10/22 09:36:39;;;;;;;560.37;309.20;;;;;;;;;;4979981;28;20193;-74
2022/10/22 09:39:21;;;;;;;475.50;263.90;;;;;;;;;;4980835;28;21678;-73
2022/10/22 09:41:46;;;;;;;367.17;211.73;;;;;;;;;;4983358;28;20216;-71
2022/10/22 09:44:15;;;;;;;364.97;212.97;;;;;;;;;;4984775;28;20213;-70
2022/10/22 09:46:44;;;;;;;505.33;276.73;;;;;;;;;;4983052;28;20343;-72
2022/10/22 09:49:23;;;;;;;433.63;245.27;;;;;;;;;;4977032;28;20555;-71
2022/10/22 09:51:59;;;;;;;309.03;180.87;;;;;;;;;;4974075;28;20332;-76
2022/10/22 09:54:25;;;;;;;327.73;190.90;;;;;;;;;;4980604;28;20804;-73
2022/10/22 09:56:54;;;;;;;347.63;204.80;;;;;;;;;;4976149;28;20553;-74
2022/10/22 09:59:25;;;;;;;457.73;268.87;;;;;;;;;;4983820;28;20217;-71
2022/10/22 10:02:01;;;;;;;402.67;228.27;;;;;;;;;;4986908;28;20205;-74
2022/10/22 10:04:27;;;;;;;346.30;193.43;;;;;;;;;;4963696;28;20324;-73
2022/10/22 10:06:58;;;;;;;222.45;144.25;;;;;;;;;;4960019;28;20214;-74
2022/10/22 10:09:25;;;;;;;348.40;202.00;;;;;;;;;;4964781;28;20358;-74
2022/10/22 10:12:03;;;;;;;405.00;230.23;;;;;;;;;;4984130;28;20182;-73
2022/10/22 10:14:48;;;;;;;428.03;236.33;;;;;;;;;;4977441;28;20245;-73
2022/10/22 10:17:44;;;;;;;394.80;224.47;;;;;;;;;;4970871;28;20291;-73
2022/10/22 10:20:20;;;;;;;414.10;224.70;;;;;;;;;;4979759;28;20312;-74
2022/10/22 10:22:46;;;;;;;331.33;188.97;;;;;;;;;;4985809;28;20235;-73
2022/10/22 10:25:25;;;;;;;254.67;155.27;;;;;;;;;;4976727;28;20208;-72
2022/10/22 10:28:03;;;;;;;381.40;218.80;;;;;;;;;;4967192;28;20322;-77
2022/10/22 10:30:30;;;;;;;445.77;253.47;;;;;;;;;;4966322;28;20197;-77
2022/10/22 10:33:15;;;;;;;368.83;213.27;;;;;;;;;;4964960;28;20177;-76
2022/10/22 10:35:54;;;;;;;421.10;251.53;;;;;;;;;;4967345;28;20232;-76
2022/10/22 10:38:23;;;;;;;398.90;237.53;;;;;;;;;;4960547;28;20233;-76
2022/10/22 10:41:09;;;;;;;511.23;292.47;;;;;;;;;;4978535;28;20290;-75
2022/10/22 10:43:54;;;;;;;453.23;265.63;;;;;;;;;;4972783;28;20756;-75
2022/10/22 10:46:29;;;;;;;253.57;158.70;;;;;;;;;;4958767;28;21074;-75
2022/10/22 10:48:57;;;;;;;475.60;266.93;;;;;;;;;;4967588;28;20219;-76
2022/10/22 10:51:23;;;;;;;418.05;228.88;;;;;;;;;;4981600;28;20254;-76
2022/10/22 10:54:08;;;;;;;440.00;239.93;;;;;;;;;;4989850;28;20333;-76
2022/10/22 10:56:39;;;;;;;336.97;198.70;;;;;;;;;;4985290;28;20271;-75
2022/10/22 10:59:11;;;;;;;320.97;194.60;;;;;;;;;;5005803;28;20323;-74
2022/10/22 11:01:44;;;;;;;417.80;254.90;;;;;;;;;;4993605;28;20696;-77
2022/10/22 11:04:25;;;;;;;354.90;211.35;;;;;;;;;;5000539;28;20475;-76
2022/10/22 11:06:55;;;;;;;339.08;196.30;;;;;;;;;;4998690;28;20286;-76
2022/10/22 11:09:35;;;;;;;408.33;238.73;;;;;;;;;;4986960;28;21031;-77
2022/10/22 11:12:23;;;;;;;361.55;220.88;;;;;;;;;;5004476;28;20722;-82
2022/10/22 11:14:58;;;;;;;523.83;308.88;;;;;;;;;;4976401;28;20216;-77
2022/10/22 11:17:27;;;;;;;208.18;133.25;;;;;;;;;;5008930;28;20255;-77
2022/10/22 11:19:58;;;;;;;271.40;164.77;;;;;;;;;;4981950;28;20320;-77
2022/10/22 11:22:27;;;;;;;375.88;218.88;;;;;;;;;;4960155;28;20734;-74
2022/10/22 11:24:53;;;;;;;484.50;278.17;;;;;;;;;;4954610;28;20573;-74
2022/10/22 11:27:41;;;;;;;377.60;219.13;;;;;;;;;;4967957;28;20224;-75
2022/10/22 11:30:21;;;;;;;377.27;216.35;;;;;;;;;;4966346;28;20229;-75
2022/10/22 11:32:48;;;;;;;372.00;213.95;;;;;;;;;;4945213;28;20710;-75
2022/10/22 11:35:15;;;;;;;493.20;282.40;;;;;;;;;;4968541;28;20666;-77
2022/10/22 11:37:43;;;;;;;426.88;248.93;;;;;;;;;;4963327;28;20251;-75
2022/10/22 11:40:20;;;;;;;379.15;221.00;;;;;;;;;;4966586;28;20213;-75
2022/10/22 11:42:52;;;;;;;304.77;188.02;;;;;;;;;;4962032;28;20991;-76
2022/10/22 11:45:21;;;;;;;475.13;272.13;;;;;;;;;;4960037;28;21503;-76
2022/10/22 11:47:58;;;;;;;438.80;245.68;;;;;;;;;;4967176;28;20746;-76
2022/10/22 11:50:47;;;;;;;429.48;244.93;;;;;;;;;;4962357;28;20221;-76
2022/10/22 11:53:13;;;;;;;261.38;160.63;;;;;;;;;;4974404;28;20676;-75
2022/10/22 11:55:49;;;;;;;439.93;249.17;;;;;;;;;;4988972;28;20299;-76
2022/10/22 11:58:29;;;;;;;466.15;259.98;;;;;;;;;;4978314;28;20235;-76
2022/10/22 12:01:16;;;;;;;408.90;236.35;;;;;;;;;;4970599;28;20213;-75
2022/10/22 12:03:43;;;;;;;302.27;179.65;;;;;;;;;;4976406;28;20737;-75
2022/10/22 12:06:14;;;;;;;438.67;250.70;;;;;;;;;;4968306;28;20688;-74
2022/10/22 12:08:52;;;;;;;394.67;225.52;;;;;;;;;;4984584;28;20219;-73
2022/10/22 12:11:29;;;;;;;514.33;278.85;;;;;;;;;;4994087;28;20371;-68
2022/10/22 12:13:58;;;;;;;472.42;273.65;;;;;;;;;;4972721;28;20223;-69
2022/10/22 12:16:25;;;;;;;367.58;208.55;;;;;;;;;;4992283;28;20311;-69
2022/10/22 12:18:59;;;;;;;348.60;199.80;;;;;;;;;;4995534;28;20219;-68
2022/10/22 12:21:25;;;;;;;486.63;268.88;;;;;;;;;;4980154;28;20196;-68
2022/10/22 12:23:55;;;;;;;502.42;275.38;;;;;;;;;;4978866;28;20306;-69
2022/10/22 12:26:36;;;;;;;548.28;300.05;;;;;;;;;;4982133;28;20258;-69
2022/10/22 12:29:06;;;;;;;426.10;238.70;;;;;;;;;;4991212;28;20264;-69
2022/10/22 12:31:39;;;;;;;583.42;328.65;;;;;;;;;;4985630;28;21149;-72
2022/10/22 12:34:06;;;;;;;472.35;250.85;;;;;;;;;;4983595;28;20220;-70
2022/10/22 12:36:35;;;;;;;492.55;264.83;;;;;;;;;;5000044;28;21280;-68
2022/10/22 12:39:05;;;;;;;612.80;368.33;;;;;;;;;;4976544;28;20495;-69
2022/10/22 12:41:32;;;;;;;431.00;239.80;;;;;;;;;;4978949;28;20219;-69
2022/10/22 12:43:59;;;;;;;606.50;335.33;;;;;;;;;;4986888;28;20212;-68
2022/10/22 12:46:29;;;;;;;464.15;264.27;;;;;;;;;;4994955;28;20224;-69
2022/10/22 12:48:58;;;;;;;550.10;307.02;;;;;;;;;;4993403;28;20322;-69
2022/10/22 12:51:24;;;;;;;429.75;245.88;;;;;;;;;;4988267;28;20772;-69
2022/10/22 12:53:54;;;;;;;433.67;246.23;;;;;;;;;;4993901;28;21039;-68
2022/10/22 12:56:21;;;;;;;434.50;250.40;;;;;;;;;;4964828;28;20367;-69
2022/10/22 12:58:53;;;;;;;479.83;265.33;;;;;;;;;;4980521;28;20220;-68
2022/10/22 13:01:27;;;;;;;572.33;321.15;;;;;;;;;;4987654;28;20588;-70
2022/10/22 13:04:12;;;;;;;530.15;295.13;;;;;;;;;;4978043;28;20757;-72
2022/10/22 13:06:43;;;;;;;482.08;269.23;;;;;;;;;;4984729;28;20290;-68
2022/10/22 13:09:14;;;;;;;544.50;313.58;;;;;;;;;;4984996;28;20217;-69
2022/10/22 13:11:41;;;;;;;523.50;294.02;;;;;;;;;;4992320;28;20223;-70
2022/10/22 13:14:30;;;;;;;549.63;319.75;;;;;;;;;;4971613;28;20272;-70
2022/10/22 13:17:11;;;;;;;460.63;261.70;;;;;;;;;;4964929;28;20231;-69
2022/10/22 13:19:42;;;;;;;576.85;329.42;;;;;;;;;;4984394;28;20215;-69
2022/10/22 13:22:27;;;;;;;504.17;288.48;;;;;;;;;;4978209;28;20271;-69
2022/10/22 13:24:55;;;;;;;588.58;335.23;;;;;;;;;;4974081;28;20709;-69
2022/10/22 13:27:30;;;;;;;461.38;253.57;;;;;;;;;;4981955;28;20208;-69
2022/10/22 13:30:00;;;;;;;558.67;317.45;;;;;;;;;;4979413;28;21546;-71
2022/10/22 13:32:31;;;;;;;576.47;326.77;;;;;;;;;;4982993;28;20660;-70
2022/10/22 13:34:58;;;;;;;490.13;281.88;;;;;;;;;;4987090;28;20353;-69
2022/10/22 13:37:25;;;;;;;448.92;252.45;;;;;;;;;;4980643;28;20258;-70
2022/10/22 13:39:51;;;;;;;507.00;288.90;;;;;;;;;;4982272;28;20220;-72
2022/10/22 13:42:17;;;;;;;581.58;332.05;;;;;;;;;;4979714;28;22690;-69
2022/10/22 13:44:43;;;;;;;505.85;275.83;;;;;;;;;;4972638;28;21025;-69
2022/10/22 13:47:28;;;;;;;577.25;330.58;;;;;;;;;;4981351;28;20227;-69
2022/10/22 13:49:57;;;;;;;380.85;217.23;;;;;;;;;;4965051;28;20278;-69
2022/10/22 13:52:46;;;;;;;340.95;194.45;;;;;;;;;;4964482;28;20235;-67
2022/10/22 13:55:25;;;;;;;432.27;237.00;;;;;;;;;;4972565;28;20892;-69
2022/10/22 13:58:16;;;;;;;563.53;311.67;;;;;;;;;;4966947;28;20216;-71
2022/10/22 14:00:43;;;;;;;546.87;309.33;;;;;;;;;;4978079;28;20491;-69
2022/10/22 14:03:14;;;;;;;452.20;252.10;;;;;;;;;;4975023;28;20205;-68
2022/10/22 14:05:45;;;;;;;563.58;322.10;;;;;;;;;;4963655;28;20244;-69
2022/10/22 14:08:12;;;;;;;574.10;325.90;;;;;;;;;;4959757;28;20224;-69
2022/10/22 14:10:41;;;;;;;483.60;269.38;;;;;;;;;;4967598;28;20232;-72